Date,TemperatureHighF,TemperatureAvgF,TemperatureLowF,DewpointHighF,DewpointAvgF,DewpointLowF,HumidityHigh,HumidityAvg,HumidityLow,PressureMaxIn,PressureMinIn,WindSpeedMaxMPH,WindSpeedAvgMPH,GustSpeedMaxMPH,PrecipitationSumIn
2014-1-1,35,27,18,24,19,12,83,74,62,30.38,30.15,11,-33,13,0.00
2014-1-2,29,26,17,25,22,16,95,86,73,30.15,29.65,11,7,20,0.00
2014-1-3,19,12,1,18,3,-5,95,69,44,30.47,29.65,16,7,27,0.00
2014-1-4,26,11,-2,14,3,-100,87,74,57,30.51,30.27,9,2,13,0.00
2014-1-5,48,24,9,48,22,7,100,93,78,30.27,29.67,10,-10,19,0.00
2014-1-6,51,36,6,51,30,-8,100,79,47,29.93,29.39,23,11,37,0.00
2014-1-7,8,4,-1,-4,-10,-14,60,53,47,30.42,29.93,22,12,34,0.00
2014-1-8,20,12,4,11,1,-5,73,61,47,30.57,30.42,8,2,14,0.00
2014-1-9,28,22,18,19,14,11,79,70,60,30.65,30.48,4,0,7,0.00
2014-1-10,36,31,26,35,28,17,98,88,65,30.53,30.14,7,2,9,0.00
2014-1-11,57,45,34,57,44,-100,100,98,98,30.11,29.27,26,-6,40,0.00
2014-1-12,45,39,28,45,32,26,100,75,66,30.07,29.45,15,7,25,0.00
2014-1-13,51,40,25,39,33,24,97,79,61,30.08,29.83,15,3,21,0.00
2014-1-14,47,44,36,44,41,36,100,93,70,29.86,29.65,8,2,13,0.00
2014-1-15,39,35,29,39,35,27,100,97,78,29.93,29.85,6,1,10,0.00
2014-1-16,36,31,23,27,21,17,86,66,50,29.97,29.83,8,3,14,0.00
2014-1-17,41,33,22,30,26,19,92,78,62,29.93,29.80,5,1,7,0.00
2014-1-18,35,26,17,30,18,-100,96,74,56,29.93,29.75,15,7,22,0.00
2014-1-19,37,26,17,26,17,10,75,69,58,29.90,29.67,14,5,20,0.00
2014-1-20,40,36,30,30,26,22,75,68,60,29.85,29.59,11,4,18,0.00
2014-1-21,35,19,9,23,14,0,94,83,62,29.93,29.79,15,7,25,0.00
2014-1-22,13,6,1,-1,-4,-8,80,62,51,30.04,29.86,13,6,23,0.00
2014-1-23,19,11,0,9,2,-4,85,69,54,30.35,30.04,13,4,21,0.00
2014-1-24,15,11,6,2,0,-2,71,62,51,30.45,30.03,12,-6,17,0.00
2014-1-25,22,18,13,20,9,-100,95,72,53,30.03,29.44,15,6,28,0.00
2014-1-26,25,19,11,19,10,3,94,68,50,29.90,29.55,13,4,23,0.00
2014-1-27,37,25,15,27,12,-4,83,61,36,30.13,29.59,21,6,32,0.00
2014-1-28,14,10,5,5,-5,-8,84,51,42,30.40,30.14,13,5,25,0.00
2014-1-29,18,11,5,6,-2,-8,86,56,41,30.32,30.16,16,4,21,0.00
2014-1-30,25,14,0,6,2,-5,81,59,40,30.47,30.16,6,1,12,0.00
2014-1-31,35,27,16,23,17,6,76,67,52,30.22,30.09,6,1,8,0.00
2014-2-1,44,36,26,34,24,-100,87,67,42,30.28,29.97,10,3,18,0.00
2014-2-2,48,36,26,38,33,25,97,86,68,30.07,29.89,3,0,8,0.00
2014-2-3,39,32,25,36,30,22,99,95,88,30.30,30.05,9,3,16,0.00
2014-2-4,34,23,12,23,18,10,94,82,58,30.45,30.20,8,1,10,0.00
2014-2-5,34,31,27,33,30,20,99,94,74,30.20,29.63,14,3,28,0.00
2014-2-6,29,23,18,20,16,13,90,75,65,30.30,30.04,12,4,25,0.00
2014-2-7,30,23,13,21,16,10,92,75,57,30.32,30.24,10,2,15,0.00
2014-2-8,28,20,11,16,10,6,88,67,43,30.33,30.16,4,1,8,0.00
2014-2-9,26,20,11,21,16,8,94,82,65,30.18,29.98,5,-10,9,0.00
2014-2-10,25,20,10,20,11,5,95,68,51,30.29,30.03,10,4,17,0.00
2014-2-11,23,14,2,12,5,-1,89,68,51,30.48,30.28,8,2,15,0.00
2014-2-12,24,14,1,15,5,-4,89,67,48,30.53,30.22,10,2,12,0.00
2014-2-13,33,27,18,33,26,16,99,96,90,30.23,29.20,21,10,34,0.01
2014-2-14,40,34,27,30,25,18,99,70,55,29.73,29.22,15,7,24,0.01
2014-2-15,32,30,25,31,24,-100,98,83,60,29.86,29.60,13,6,25,0.00
2014-2-16,26,21,17,17,12,8,85,67,53,30.16,29.86,9,4,19,0.00
2014-2-17,21,20,19,16,12,10,82,72,67,30.24,30.16,11,7,18,0.00
2014-2-19,44,40,36,36,34,29,91,78,62,30.07,29.73,10,3,17,0.00
2014-2-20,51,38,22,34,27,20,94,66,40,30.24,29.94,8,2,14,0.00
2014-2-21,51,39,29,51,37,28,100,92,77,29.94,29.60,9,2,18,0.00
2014-2-22,53,43,30,29,24,-100,80,51,29,30.04,29.95,14,6,20,0.00
2014-2-23,51,42,29,35,31,26,90,68,44,29.98,29.86,11,2,18,0.00
2014-2-24,37,32,25,33,17,11,88,56,41,30.09,29.85,15,7,28,0.00
2014-2-25,30,25,19,19,14,10,76,63,54,30.09,29.95,16,4,22,0.00
2014-2-26,27,21,11,22,10,1,92,64,37,29.97,29.84,14,4,27,0.00
2014-2-27,28,16,6,15,4,-10,79,59,37,30.15,29.65,18,6,30,0.00
2014-2-28,20,12,5,1,-5,-12,65,45,36,30.41,30.15,5,-9,11,0.00
2014-3-1,33,22,7,21,9,-100,75,59,41,30.39,30.16,9,-11,12,0.00
2014-3-2,39,33,27,32,26,20,93,77,59,30.14,29.98,7,1,13,0.00
2014-3-3,29,17,11,23,8,0,93,66,51,30.33,29.99,10,-8,18,0.00
2014-3-4,26,17,9,9,3,-4,66,53,29,30.41,30.24,5,1,14,0.00
2014-3-5,37,26,13,16,11,6,79,55,30,30.42,30.19,11,-8,17,0.00
2014-3-6,29,22,16,16,8,1,72,53,37,30.59,30.42,9,4,19,0.00
2014-3-7,38,29,22,28,22,15,82,74,64,30.42,29.90,9,4,14,0.00
2014-3-8,53,37,22,36,24,-100,89,67,53,29.91,29.82,8,-9,14,0.00
2014-3-9,42,37,33,35,24,16,79,59,41,30.05,29.88,12,-6,20,0.00
2014-3-10,54,41,32,36,28,19,77,60,49,29.95,29.59,10,-9,15,0.00
2014-3-11,63,45,33,45,36,29,88,72,51,29.67,29.57,8,1,14,0.00
2014-3-12,58,47,24,52,40,15,96,79,62,29.62,28.96,19,-10,32,0.00
2014-3-13,28,22,17,15,5,0,73,50,29,30.11,29.38,22,13,35,0.00
2014-3-14,45,34,19,28,17,5,65,51,40,30.18,29.83,16,6,23,0.00
2014-3-15,54,48,42,37,29,26,62,49,34,30.01,29.73,19,-3,27,0.00
2014-3-16,42,33,28,28,14,-100,66,48,31,30.16,30.01,11,6,21,0.00
2014-3-17,32,26,20,20,11,-100,90,56,38,30.09,29.99,9,3,17,0.00
2014-3-18,43,36,29,24,16,9,50,44,38,30.23,30.08,8,4,14,0.00
2014-3-19,42,37,32,41,31,12,97,81,39,30.22,29.80,9,3,19,0.00
2014-3-20,48,42,39,42,32,-100,98,73,44,29.93,29.73,21,-4,35,0.00
2014-3-21,52,40,32,27,23,-100,73,53,28,30.02,29.93,14,5,22,0.00
2014-3-22,63,48,32,41,32,24,80,58,32,29.98,29.76,16,5,26,0.00
2014-3-23,45,37,28,29,21,-100,62,54,38,30.14,29.95,11,5,22,0.00
2014-3-24,32,25,19,13,8,5,61,48,32,30.26,30.11,10,5,18,0.00
2014-3-25,32,26,18,29,20,11,93,78,56,30.14,29.85,12,2,17,0.00
2014-3-26,33,28,25,27,13,1,93,57,27,30.25,29.83,19,10,37,0.00
2014-3-27,40,31,20,24,13,3,61,47,36,30.40,30.20,14,5,21,0.00
2014-3-28,60,48,36,53,42,24,98,82,61,30.18,29.92,13,6,21,0.00
2014-3-29,54,47,45,50,44,41,99,92,79,30.08,29.56,22,9,30,0.52
2014-3-30,46,40,35,46,38,-100,100,94,86,29.75,29.47,16,8,27,2.36
2014-3-31,59,45,35,36,33,28,93,65,37,30.07,29.74,17,-2,29,0.07
2014-4-1,59,44,33,38,31,-100,79,61,46,30.13,29.93,7,3,12,0.01
2014-4-2,59,48,40,48,42,35,94,81,64,30.10,29.97,6,1,9,0.23
2014-4-3,61,52,46,46,38,29,92,61,31,30.09,29.93,10,2,14,0.23
2014-4-4,47,44,41,44,41,39,97,90,85,29.96,29.71,11,7,20,0.19
2014-4-5,48,44,37,42,34,26,99,69,51,30.09,29.71,19,9,31,0.01
2014-4-6,56,43,31,30,24,-100,76,51,31,30.20,30.09,6,2,12,0.01
2014-4-7,49,42,34,48,38,28,97,86,69,30.16,29.61,14,5,23,0.39
2014-4-8,57,54,42,53,45,35,99,75,54,29.64,29.42,19,9,29,0.08
2014-4-9,61,48,35,42,32,26,93,61,28,30.00,29.63,15,4,23,0.01
2014-4-10,64,50,33,39,34,28,82,57,35,30.16,29.97,18,6,29,0.00
2014-4-11,73,58,52,54,46,39,94,66,36,30.00,29.91,15,4,23,0.09
2014-4-12,72,58,44,51,43,36,99,63,30,30.20,29.99,9,2,14,0.01
2014-4-13,78,64,54,59,51,-100,91,68,47,30.11,29.91,19,8,31,0.01
2014-4-14,73,67,62,60,57,55,82,71,59,29.94,29.75,21,12,36,0.00
2014-4-15,66,55,32,64,54,32,100,95,75,29.96,29.46,16,9,30,2.41
2014-4-16,44,35,27,33,19,13,96,54,39,30.52,29.96,14,7,28,0.08
2014-4-17,52,42,32,32,27,19,71,55,42,30.65,30.53,10,6,18,0.00
2014-4-18,52,44,35,38,33,29,80,66,54,30.58,30.24,7,3,11,0.00
2014-4-19,63,53,37,43,32,26,89,51,26,30.29,30.20,11,3,17,0.00
2014-4-20,61,52,44,37,30,-100,58,46,37,30.41,30.28,15,5,23,0.00
2014-4-21,67,51,32,37,28,18,82,46,18,30.28,29.83,7,2,11,0.00
2014-4-22,65,55,48,56,47,36,98,77,54,29.84,29.53,22,3,40,0.18
2014-4-23,55,48,42,45,36,31,73,62,51,29.91,29.57,17,10,31,0.10
2014-4-24,60,47,38,31,22,16,66,39,18,30.03,29.91,15,6,23,0.00
2014-4-25,62,48,36,43,30,20,88,53,28,30.00,29.71,14,-6,26,0.57
2014-4-26,71,56,45,50,42,31,96,63,27,29.87,29.64,14,6,31,0.59
2014-4-27,59,50,42,37,32,-100,72,53,40,30.09,29.87,12,5,21,0.00
2014-4-28,61,52,38,47,38,32,90,61,43,30.11,29.95,9,2,15,0.01
2014-4-29,50,46,42,48,42,39,95,88,75,30.24,30.03,19,-4,30,1.07
2014-4-30,55,47,41,55,46,40,100,97,93,30.27,29.81,20,10,28,3.38
2014-5-1,73,62,54,63,56,44,100,82,47,29.81,29.65,10,4,19,0.57
2014-5-2,62,57,48,47,42,39,83,58,44,29.84,29.73,16,-5,23,0.01
2014-5-3,64,54,43,52,45,39,92,74,48,29.85,29.69,14,2,31,0.16
2014-5-4,59,52,44,49,40,-100,98,68,35,29.86,29.73,14,5,25,0.11
2014-5-5,64,54,45,39,35,32,71,51,32,29.96,29.84,12,5,18,0.01
2014-5-6,69,57,44,40,35,30,78,48,29,30.02,29.86,9,2,16,0.00
2014-5-7,56,54,53,34,34,34,48,46,44,30.06,30.04,0,0,2,0.00
2014-5-13,73,65,57,56,52,49,77,65,54,30.17,30.09,11,8,17,0.02
2014-5-14,67,57,50,64,54,47,96,89,78,30.23,30.11,7,4,12,0.02
2014-5-15,78,68,62,69,65,61,99,89,68,30.13,29.93,15,8,28,0.02
2014-5-16,69,63,55,66,59,47,100,89,72,29.92,29.72,22,7,31,1.64
2014-5-17,63,55,45,47,43,39,88,66,43,30.11,29.87,9,3,15,0.01
2014-5-18,62,52,41,45,40,-100,95,67,40,30.19,30.11,8,-8,18,0.00
2014-5-19,69,54,39,47,36,-100,94,59,31,30.23,30.09,11,3,18,0.00
2014-5-20,73,60,45,54,46,-100,93,65,38,30.16,29.98,11,2,14,0.00
2014-5-21,61,59,57,60,54,-100,98,90,83,30.01,29.85,5,0,7,0.19
2014-5-22,80,64,57,66,59,-100,99,88,57,29.86,29.68,15,2,27,0.28
2014-5-23,72,63,53,63,51,46,97,67,43,29.95,29.82,11,4,19,0.26
2014-5-24,73,63,56,56,52,49,86,68,48,30.07,29.93,10,4,15,0.00
2014-5-25,78,64,49,58,49,-100,97,65,32,30.11,30.01,10,2,15,0.00
2014-5-26,83,70,52,60,54,49,90,61,36,30.07,29.90,10,3,18,0.00
2014-5-27,84,69,58,69,62,55,100,82,57,29.91,29.77,16,2,35,0.92
2014-5-28,77,66,56,70,64,53,100,96,78,30.08,29.77,15,3,21,0.53
2014-5-29,55,54,52,53,51,49,97,91,84,30.17,30.08,10,3,14,0.33
2014-5-30,76,62,53,57,53,49,99,76,44,30.12,29.98,6,2,15,0.01
2014-5-31,74,66,53,52,47,41,84,53,32,30.22,30.05,12,4,21,0.01
2014-6-1,75,63,51,56,50,-100,96,67,44,30.32,30.19,8,2,13,0.00
2014-6-2,79,68,52,60,55,49,94,65,49,30.23,29.99,12,5,19,0.00
2014-6-3,84,73,60,70,64,58,94,75,59,30.01,29.79,11,3,16,0.13
2014-6-4,80,72,60,65,60,57,100,69,46,29.83,29.69,8,3,15,0.15
2014-6-5,75,66,58,60,57,53,97,75,48,29.80,29.60,9,6,21,0.25
2014-6-6,74,65,57,56,53,50,85,66,47,29.93,29.79,9,3,15,0.01
2014-6-7,82,68,52,58,54,50,95,65,37,30.00,29.88,8,2,12,0.00
2014-6-8,81,69,55,63,56,-100,95,67,48,29.92,29.79,11,4,18,0.08
2014-6-9,78,70,65,70,66,60,97,85,74,29.86,29.79,9,-15,13,0.14
2014-6-10,79,72,67,72,69,66,99,90,74,29.90,29.83,7,3,12,0.25
2014-6-11,73,67,63,71,65,62,97,95,92,30.01,29.89,11,6,17,0.15
2014-6-12,72,66,61,69,65,60,100,97,87,30.01,29.82,9,4,19,0.96
2014-6-13,81,71,67,72,69,66,100,93,69,29.82,29.68,6,2,13,1.40
2014-6-14,68,65,59,67,56,50,98,73,59,30.05,29.78,13,5,20,0.03
2014-6-15,80,65,50,60,51,-100,95,69,44,30.13,30.03,7,2,13,0.00
2014-6-16,87,73,55,68,61,54,95,70,44,30.10,29.97,10,2,15,0.00
2014-6-17,89,79,67,72,69,65,93,72,51,30.04,29.86,10,3,15,0.00
2014-6-18,90,83,74,72,68,61,81,63,46,29.93,29.84,11,6,21,0.00
2014-6-19,75,71,67,70,68,64,100,89,75,29.99,29.87,6,2,13,0.62
2014-6-20,78,70,55,64,53,48,97,59,39,30.01,29.89,8,3,14,0.01
2014-6-21,76,69,63,59,54,49,80,61,51,29.92,29.83,7,2,10,0.00
2014-6-22,81,68,56,64,56,-100,97,72,49,29.96,29.87,7,-17,11,0.00
2014-6-23,80,71,60,65,60,57,95,70,50,30.07,29.96,13,5,19,0.00
2014-6-24,82,74,67,66,62,59,84,68,48,30.09,29.95,15,7,24,0.00
2014-6-25,86,78,69,73,70,65,99,77,57,29.96,29.75,14,7,22,0.98
2014-6-26,82,75,69,70,68,65,100,81,57,29.93,29.78,8,3,18,0.98
2014-6-27,82,75,68,68,66,60,91,75,57,30.15,29.93,7,3,15,0.00
2014-6-28,83,74,60,65,61,58,94,67,48,30.23,30.15,6,2,12,0.00
2014-6-29,82,72,63,64,57,-100,94,64,45,30.19,30.05,12,5,17,0.00
2014-6-30,84,76,68,68,64,53,84,68,52,30.06,29.88,10,5,16,0.00
2014-7-1,88,80,70,74,71,68,93,76,58,29.91,29.76,15,7,25,0.00
2014-7-2,91,79,72,77,74,72,100,86,61,29.85,29.77,17,4,28,0.36
2014-7-3,88,78,71,77,73,70,100,86,65,29.93,29.82,15,4,21,0.35
2014-7-4,73,69,64,71,61,51,97,77,48,30.02,29.93,15,6,27,0.62
2014-7-5,79,70,59,58,52,49,76,54,38,30.19,30.09,8,4,13,0.09
2014-7-6,82,74,56,66,59,54,94,63,44,30.09,29.89,13,6,20,0.00
2014-7-7,88,80,72,69,67,65,86,67,49,29.89,29.70,18,8,33,0.00
2014-7-8,89,82,72,71,69,66,83,65,54,29.78,29.64,16,7,21,0.00
2014-7-9,86,75,66,72,68,65,97,79,50,29.91,29.74,14,4,20,0.35
2014-7-10,83,75,66,68,65,62,94,74,51,30.09,29.91,7,3,15,0.22
2014-7-11,84,74,65,69,66,64,97,77,55,30.16,30.08,5,1,9,0.07
2014-7-12,83,74,64,72,68,63,96,82,62,30.17,30.05,11,3,17,0.10
2014-7-13,85,76,72,75,70,69,95,81,73,30.06,29.82,13,8,22,0.11
2014-7-14,84,75,68,74,71,67,100,89,72,29.87,29.75,7,2,9,1.98
2014-7-15,80,73,68,75,71,68,100,94,79,29.79,29.67,8,2,13,1.26
2014-7-16,78,71,63,68,62,56,100,76,49,29.85,29.71,7,2,14,0.65
2014-7-17,76,67,59,60,57,55,95,72,49,30.09,29.86,10,2,15,0.00
2014-7-18,79,68,55,63,57,53,95,71,46,30.20,30.09,4,1,9,0.00
2014-7-19,78,70,64,62,59,55,87,69,47,30.17,30.10,7,2,12,0.00
2014-7-20,79,70,64,66,63,61,95,79,56,30.10,30.03,5,2,10,0.06
2014-7-21,80,72,64,68,65,62,98,80,61,30.15,30.07,3,1,7,0.00
2014-7-22,84,75,66,73,69,65,97,82,66,30.14,30.00,11,3,17,0.00
2014-7-23,88,75,69,76,70,66,97,85,65,30.00,29.72,10,3,18,0.22
2014-7-24,77,72,68,69,62,56,98,72,49,29.89,29.80,9,3,17,0.22
2014-7-25,79,68,58,60,56,51,83,65,46,30.02,29.91,6,2,9,0.00
2014-7-26,83,71,60,65,61,55,91,73,39,29.96,29.83,5,1,10,0.00
2014-7-27,87,74,66,74,67,65,97,79,57,29.83,29.58,9,4,16,1.10
2014-7-28,68,66,66,67,66,65,99,98,96,29.58,29.49,7,3,12,1.11
2014-7-29,63,63,63,58,57,57,84,82,81,29.76,29.75,5,5,10,0.00
2014-7-30,59,57,56,55,54,54,94,92,88,29.96,29.95,0,0,1,0.00
2014-7-31,81,72,60,65,62,57,91,71,53,30.08,30.01,9,2,14,0.00
2014-8-1,81,70,65,73,66,63,97,89,61,30.13,30.08,11,2,15,0.02
2014-8-2,76,70,66,67,66,63,98,88,70,30.13,30.02,7,2,13,0.02
2014-8-3,73,69,66,69,66,64,97,91,77,30.06,29.98,5,2,9,0.06
2014-8-4,82,72,65,68,66,65,100,83,57,30.06,29.99,4,1,9,0.01
2014-8-5,85,76,61,69,65,60,98,70,48,30.02,29.88,9,2,17,0.00
2014-8-6,79,70,62,67,63,60,94,79,56,29.90,29.83,6,2,11,0.00
2014-8-7,80,70,60,62,59,57,95,70,47,30.00,29.88,8,2,15,0.00
2014-8-8,79,67,53,60,57,52,95,72,46,30.09,30.00,6,2,12,0.00
2014-8-9,82,68,56,63,58,55,96,74,41,30.09,30.02,4,1,11,0.00
2014-8-10,85,69,58,67,58,56,95,70,40,30.10,30.03,7,2,11,0.00
2014-8-11,80,72,60,67,61,56,96,70,45,30.08,29.99,13,5,19,0.00
2014-8-12,72,69,67,70,68,65,100,96,82,30.00,29.76,13,6,22,1.08
2014-8-13,78,72,67,70,67,65,100,87,65,29.73,29.69,11,5,17,0.72
2014-8-15,67,63,59,57,56,55,87,78,69,29.96,29.93,0,0,3,0.00
2014-8-16,77,64,51,57,54,50,97,74,41,29.98,29.88,10,2,16,0.00
2014-8-17,79,66,58,68,59,55,93,78,54,29.89,29.82,8,2,14,0.00
2014-8-18,80,69,55,66,61,54,97,77,57,29.91,29.77,9,1,12,0.00
2014-8-19,82,72,61,68,63,57,93,73,56,29.86,29.80,9,2,11,0.00
2014-8-20,82,74,66,69,66,63,91,75,60,29.96,29.87,12,4,15,0.00
2014-8-21,81,73,64,73,68,62,95,84,71,30.01,29.92,7,2,12,0.00
2014-8-22,76,71,67,70,67,65,96,88,74,29.97,29.91,8,2,11,0.00
2014-8-23,70,66,63,65,63,60,98,89,75,30.08,29.96,10,4,16,0.06
2014-8-24,79,67,60,64,59,58,99,77,49,30.12,30.05,5,1,10,0.06
2014-8-25,82,70,58,65,61,57,98,77,48,30.15,30.08,6,1,11,0.00
2014-8-26,85,72,57,65,62,56,97,74,42,30.14,30.03,5,1,10,0.00
2014-8-27,87,74,61,71,66,60,98,78,57,30.04,29.83,7,2,11,0.00
2014-8-28,75,70,64,69,57,51,86,65,47,30.05,29.84,11,5,20,0.00
2014-8-29,77,64,51,58,53,49,93,71,48,30.18,30.05,5,1,11,0.00
2014-8-30,78,68,57,67,61,55,97,81,61,30.20,30.08,10,4,16,0.00
2014-8-31,87,74,72,76,70,67,96,86,61,30.09,29.92,10,4,16,0.28
2014-9-1,85,77,71,75,72,70,99,87,67,29.97,29.87,7,2,13,0.28
2014-9-2,89,76,69,75,71,68,100,86,57,29.91,29.77,11,3,26,0.40
2014-9-3,80,72,64,70,65,62,98,81,57,30.09,29.83,6,1,11,0.10
2014-9-4,84,73,60,69,64,59,98,77,53,30.15,30.05,11,3,16,0.00
2014-9-5,85,75,69,76,71,66,97,89,72,30.12,29.96,7,2,12,0.00
2014-9-6,88,75,68,75,71,62,99,87,65,29.96,29.81,9,3,16,0.00
2014-9-7,76,68,63,63,56,50,88,68,41,30.13,29.92,11,3,16,0.00
2014-9-8,73,66,58,63,57,52,85,75,61,30.24,30.14,12,5,18,0.00
2014-9-9,72,66,62,62,60,56,85,79,66,30.20,30.08,13,5,17,0.00
2014-9-10,78,70,61,64,62,60,96,79,60,30.08,29.94,9,3,13,0.00
2014-9-11,83,74,67,71,68,61,94,81,67,29.95,29.80,14,7,20,0.00
2014-9-12,71,64,58,61,54,50,83,72,57,30.12,29.93,8,4,16,0.00
2014-9-13,63,58,53,61,55,50,97,89,78,30.17,30.06,8,2,13,0.17
2014-9-14,66,55,47,53,48,45,99,78,55,30.28,30.16,8,2,14,0.01
2014-9-15,70,57,43,57,49,42,100,77,50,30.22,30.03,6,1,13,0.00
2014-9-16,70,62,53,58,54,50,96,79,57,30.03,29.93,9,3,16,0.09
2014-9-17,72,59,48,55,51,47,97,77,46,30.03,29.92,8,1,11,0.01
2014-9-18,74,59,48,56,49,45,95,73,38,30.07,29.92,7,1,13,0.00
2014-9-19,67,59,52,55,52,48,89,77,63,30.28,30.07,10,5,16,0.00
2014-9-20,76,65,56,63,58,54,95,81,57,30.27,30.01,13,5,19,0.00
2014-9-21,80,65,56,66,60,55,100,85,57,30.02,29.57,13,2,31,0.11
2014-9-22,66,60,50,61,50,43,100,72,51,30.17,29.66,13,6,25,0.12
2014-9-23,71,54,41,50,45,39,95,74,41,30.36,30.17,4,1,9,0.00
2014-9-24,70,58,47,56,51,45,95,79,58,30.47,30.36,12,5,20,0.00
2014-9-25,62,59,56,59,56,54,97,91,82,30.39,30.20,10,5,18,0.48
2014-9-26,76,60,48,58,54,47,99,81,49,30.23,30.13,8,2,15,0.01
2014-9-27,81,66,50,60,55,49,98,74,41,30.21,30.12,4,0,10,0.01
2014-9-28,82,64,52,65,56,51,98,78,41,30.15,29.99,8,1,10,0.00
2014-9-29,73,65,59,65,61,58,97,86,67,29.99,29.85,6,1,11,0.00
2014-9-30,76,67,60,64,60,58,100,81,54,29.91,29.82,7,2,12,0.00
2014-10-1,74,65,57,61,59,56,98,82,59,30.03,29.91,5,2,9,0.05
2014-10-2,70,61,52,59,57,51,98,86,67,30.11,30.03,7,1,9,0.01
2014-10-3,69,62,52,60,57,51,99,86,69,30.07,29.72,12,5,20,0.05
2014-10-4,63,58,46,63,52,34,100,81,50,29.75,29.54,13,6,23,0.37
2014-10-5,56,46,33,42,36,31,96,71,48,29.94,29.75,11,3,18,0.07
2014-10-6,70,56,40,51,45,38,93,68,43,29.99,29.89,16,7,30,0.00
2014-10-7,68,62,57,60,54,50,93,77,56,29.98,29.80,13,7,20,0.06
2014-10-8,71,62,55,60,53,43,100,74,44,29.93,29.76,21,7,33,0.32
2014-10-9,69,57,42,45,42,39,91,60,37,30.05,29.93,17,5,25,0.00
2014-10-10,60,52,45,49,45,41,90,77,57,30.09,30.03,4,0,7,0.00
2014-10-11,55,50,45,51,48,44,98,93,84,30.16,29.99,4,2,11,0.20
2014-10-12,62,50,39,47,42,39,99,76,44,30.27,30.15,7,1,12,0.01
2014-10-13,63,58,54,63,54,47,99,89,77,30.26,30.16,4,1,11,0.04
2014-10-14,75,69,63,67,66,63,100,89,74,30.16,29.97,15,8,25,0.01
2014-10-15,73,68,63,70,67,63,100,94,87,29.97,29.68,18,8,29,3.32
2014-10-16,67,60,56,66,59,56,100,95,73,29.69,29.63,11,4,23,1.03
2014-10-17,69,60,53,56,55,52,100,84,55,29.73,29.62,11,4,18,0.45
2014-10-18,66,56,51,56,49,43,98,79,54,29.77,29.55,15,5,26,0.00
2014-10-19,53,47,38,44,35,29,84,63,41,30.04,29.77,15,7,27,0.00
2014-10-20,59,47,33,49,40,31,95,77,58,30.09,29.89,13,3,20,0.00
2014-10-21,65,56,49,55,51,48,99,85,61,29.89,29.76,7,1,11,0.07
2014-10-22,55,53,50,52,50,46,96,89,83,29.90,29.83,11,7,25,0.10
2014-10-23,56,52,49,48,46,44,88,79,66,29.84,29.77,16,8,26,0.01
2014-10-24,66,58,51,48,45,39,77,61,43,29.87,29.78,13,6,26,0.01
2014-10-25,67,57,39,49,45,37,93,65,47,29.88,29.59,14,4,21,0.00
2014-10-26,63,57,49,50,40,35,79,53,43,29.85,29.57,15,6,25,0.00
2014-10-27,65,52,38,41,38,34,89,61,35,30.03,29.85,6,2,12,0.00
2014-10-28,76,60,46,59,50,40,90,71,51,29.99,29.85,7,2,12,0.00
2014-10-29,65,55,46,57,51,45,98,87,62,29.94,29.83,10,1,19,0.06
2014-10-30,55,46,39,48,41,36,100,82,54,30.01,29.93,7,1,15,0.01
2014-10-31,53,45,37,39,36,33,89,72,48,30.00,29.82,10,2,15,0.00
2014-11-1,50,46,43,42,39,31,93,78,57,29.85,29.76,17,7,27,0.11
2014-11-2,45,41,39,34,26,18,80,55,38,30.15,29.84,20,11,33,0.01
2014-11-3,59,48,36,31,24,19,68,43,21,30.22,30.13,13,6,25,0.00
2014-11-4,70,57,43,41,34,24,76,45,18,30.16,29.99,10,2,16,0.00
2014-11-5,59,52,46,47,41,37,81,67,43,30.14,29.99,5,1,12,0.00
2014-11-6,49,47,45,48,46,41,99,96,79,30.11,29.61,8,2,11,0.48
2014-11-7,48,44,37,46,34,25,99,70,44,29.98,29.62,19,7,31,0.02
2014-11-8,47,38,27,36,29,24,92,72,51,30.03,29.87,11,3,18,0.01
2014-11-9,53,43,33,39,34,30,94,72,45,30.00,29.86,9,1,18,0.00
2014-11-10,60,46,32,43,37,29,91,73,51,30.14,30.00,8,2,14,0.00
2014-11-11,62,51,37,58,49,35,97,93,81,30.09,29.85,5,1,10,0.00
2014-11-12,60,54,40,58,45,30,96,71,44,30.07,29.82,13,5,23,0.00
2014-11-13,41,36,32,32,29,26,98,76,58,30.11,30.00,5,1,7,0.03
2014-11-14,37,34,30,32,24,20,98,68,49,30.21,29.99,10,5,19,0.07
2014-11-15,39,31,25,27,22,21,86,67,49,30.36,30.21,9,2,15,0.01
2014-11-16,41,35,25,34,26,21,92,71,53,30.35,30.05,10,4,16,0.06
2014-11-17,45,40,36,44,38,30,98,94,70,30.03,29.49,12,3,20,0.53
2014-11-18,37,25,20,26,9,4,67,51,38,30.15,29.67,20,10,29,0.05
2014-11-19,28,23,16,18,10,7,69,57,45,30.31,30.01,10,6,18,0.00
2014-11-20,43,33,26,27,19,12,70,57,44,30.07,29.86,13,4,22,0.00
2014-11-21,33,27,21,13,12,10,68,53,41,30.51,30.07,15,5,23,0.00
2014-11-22,41,28,14,25,17,11,87,65,39,30.51,30.20,15,3,22,0.00
2014-11-23,55,44,34,48,29,22,91,56,39,30.20,29.85,9,2,15,0.00
2014-11-24,67,61,51,61,57,50,100,87,72,29.85,29.52,20,11,30,0.32
2014-11-25,58,49,37,55,37,31,94,66,46,30.14,29.72,10,3,20,0.02
2014-11-26,43,35,32,34,32,32,100,91,66,30.15,29.86,12,3,17,0.56
2014-11-27,37,32,27,32,29,25,100,89,75,30.09,29.91,8,3,14,0.25
2014-11-28,33,30,25,29,22,17,97,72,56,30.26,30.09,10,4,19,0.01
2014-11-29,39,28,19,32,22,16,91,77,63,30.32,30.14,7,2,12,0.03
2014-11-30,46,41,38,39,35,31,85,79,73,30.14,30.02,5,2,10,0.03
2014-12-1,62,47,39,53,42,28,96,83,62,30.45,30.06,11,3,18,0.24
2014-12-2,38,33,30,35,28,23,100,81,66,30.56,30.26,9,4,16,0.07
2014-12-3,42,37,34,42,36,27,100,96,64,30.27,29.97,11,3,18,0.18
2014-12-4,40,35,29,28,26,24,88,69,56,30.47,30.24,9,3,16,0.02
2014-12-5,37,34,30,35,29,22,98,82,66,30.52,30.31,9,2,14,0.25
2014-12-6,44,40,36,43,39,32,99,95,81,30.32,30.03,14,3,25,0.64
2014-12-7,43,36,31,33,22,16,75,57,36,30.57,30.22,14,8,25,0.06
2014-12-8,31,28,23,26,17,6,86,65,47,30.62,30.27,10,5,18,0.00
2014-12-9,42,36,29,41,34,25,99,93,84,30.27,29.79,11,7,20,0.33
2014-12-10,40,35,33,37,30,29,96,75,70,29.79,29.70,17,10,27,0.11